sensor_id;sensor_type;location;lat;lon;timestamp;P1;durP1;ratioP1;P2;durP2;ratioP2
20456;SDS011;10387;51.102;6.848;2022-08-16T00:01:30;8.43;;;7.63;;
20456;SDS011;10387;51.102;6.848;2022-08-16T00:03:56;8.10;;;7.40;;
20456;SDS011;10387;51.102;6.848;2022-08-16T00:06:23;9.00;;;8.10;;
20456;SDS011;10387;51.102;6.848;2022-08-16T00:08:50;8.23;;;7.43;;
20456;SDS011;10387;51.102;6.848;2022-08-16T00:11:16;9.13;;;8.23;;
20456;SDS011;10387;51.102;6.848;2022-08-16T00:13:46;8.43;;;7.63;;
20456;SDS011;10387;51.102;6.848;2022-08-16T00:16:13;8.63;;;7.53;;
20456;SDS011;10387;51.102;6.848;2022-08-16T00:18:39;8.20;;;7.40;;
20456;SDS011;10387;51.102;6.848;2022-08-16T00:21:05;8.10;;;7.30;;
20456;SDS011;10387;51.102;6.848;2022-08-16T00:23:31;9.30;;;7.63;;
20456;SDS011;10387;51.102;6.848;2022-08-16T00:25:57;8.30;;;7.30;;
20456;SDS011;10387;51.102;6.848;2022-08-16T00:28:23;8.63;;;7.80;;
20456;SDS011;10387;51.102;6.848;2022-08-16T00:30:50;8.70;;;7.80;;
20456;SDS011;10387;51.102;6.848;2022-08-16T00:33:16;8.27;;;7.47;;
20456;SDS011;10387;51.102;6.848;2022-08-16T00:35:42;8.20;;;7.40;;
20456;SDS011;10387;51.102;6.848;2022-08-16T00:38:08;9.03;;;7.63;;
20456;SDS011;10387;51.102;6.848;2022-08-16T00:40:37;8.33;;;7.53;;
20456;SDS011;10387;51.102;6.848;2022-08-16T00:43:05;8.07;;;7.37;;
20456;SDS011;10387;51.102;6.848;2022-08-16T00:45:36;8.50;;;7.63;;
20456;SDS011;10387;51.102;6.848;2022-08-16T00:48:06;8.43;;;7.60;;
20456;SDS011;10387;51.102;6.848;2022-08-16T00:50:34;8.43;;;7.60;;
20456;SDS011;10387;51.102;6.848;2022-08-16T00:53:00;8.57;;;7.77;;
20456;SDS011;10387;51.102;6.848;2022-08-16T00:55:27;8.10;;;7.27;;
20456;SDS011;10387;51.102;6.848;2022-08-16T00:57:54;8.37;;;7.57;;
20456;SDS011;10387;51.102;6.848;2022-08-16T01:00:22;8.17;;;7.40;;
20456;SDS011;10387;51.102;6.848;2022-08-16T01:02:52;8.03;;;7.20;;
20456;SDS011;10387;51.102;6.848;2022-08-16T01:05:18;10.60;;;8.03;;
20456;SDS011;10387;51.102;6.848;2022-08-16T01:07:44;8.37;;;7.43;;
20456;SDS011;10387;51.102;6.848;2022-08-16T01:10:11;8.20;;;7.40;;
20456;SDS011;10387;51.102;6.848;2022-08-16T01:12:37;8.33;;;7.40;;
20456;SDS011;10387;51.102;6.848;2022-08-16T01:15:03;7.83;;;7.13;;
20456;SDS011;10387;51.102;6.848;2022-08-16T01:17:30;7.60;;;6.80;;
20456;SDS011;10387;51.102;6.848;2022-08-16T01:19:58;8.40;;;7.50;;
20456;SDS011;10387;51.102;6.848;2022-08-16T01:25:12;7.80;;;7.10;;
20456;SDS011;10387;51.102;6.848;2022-08-16T01:27:47;8.03;;;7.23;;
20456;SDS011;10387;51.102;6.848;2022-08-16T01:30:30;8.90;;;6.90;;
20456;SDS011;10387;51.102;6.848;2022-08-16T01:32:58;7.97;;;7.17;;
20456;SDS011;10387;51.102;6.848;2022-08-16T01:35:27;8.00;;;7.20;;
20456;SDS011;10387;51.102;6.848;2022-08-16T01:37:55;7.40;;;6.70;;
20456;SDS011;10387;51.102;6.848;2022-08-16T01:40:27;7.60;;;6.90;;
20456;SDS011;10387;51.102;6.848;2022-08-16T01:42:54;7.80;;;7.07;;
20456;SDS011;10387;51.102;6.848;2022-08-16T01:45:21;8.37;;;6.83;;
20456;SDS011;10387;51.102;6.848;2022-08-16T01:47:49;7.37;;;6.63;;
20456;SDS011;10387;51.102;6.848;2022-08-16T01:50:17;8.73;;;7.37;;
20456;SDS011;10387;51.102;6.848;2022-08-16T01:52:44;7.90;;;7.10;;
20456;SDS011;10387;51.102;6.848;2022-08-16T01:55:19;8.20;;;7.40;;
20456;SDS011;10387;51.102;6.848;2022-08-16T01:57:46;8.17;;;7.30;;
20456;SDS011;10387;51.102;6.848;2022-08-16T02:00:12;7.50;;;6.80;;
20456;SDS011;10387;51.102;6.848;2022-08-16T02:02:40;7.53;;;6.83;;
20456;SDS011;10387;51.102;6.848;2022-08-16T02:05:06;9.63;;;6.57;;
20456;SDS011;10387;51.102;6.848;2022-08-16T02:07:34;7.87;;;7.07;;
20456;SDS011;10387;51.102;6.848;2022-08-16T02:10:00;7.43;;;6.83;;
20456;SDS011;10387;51.102;6.848;2022-08-16T02:12:37;8.17;;;6.77;;
20456;SDS011;10387;51.102;6.848;2022-08-16T02:15:04;7.73;;;7.00;;
20456;SDS011;10387;51.102;6.848;2022-08-16T02:17:32;7.43;;;6.73;;
20456;SDS011;10387;51.102;6.848;2022-08-16T02:19:59;7.87;;;7.17;;
20456;SDS011;10387;51.102;6.848;2022-08-16T02:22:28;6.97;;;6.23;;
20456;SDS011;10387;51.102;6.848;2022-08-16T02:24:54;6.97;;;5.93;;
20456;SDS011;10387;51.102;6.848;2022-08-16T02:27:20;8.67;;;6.50;;
20456;SDS011;10387;51.102;6.848;2022-08-16T02:29:47;7.10;;;6.50;;
20456;SDS011;10387;51.102;6.848;2022-08-16T02:32:14;6.87;;;6.00;;
20456;SDS011;10387;51.102;6.848;2022-08-16T02:34:41;6.37;;;5.77;;
20456;SDS011;10387;51.102;6.848;2022-08-16T02:37:08;7.23;;;6.43;;
20456;SDS011;10387;51.102;6.848;2022-08-16T02:39:35;7.17;;;6.47;;
20456;SDS011;10387;51.102;6.848;2022-08-16T02:42:02;7.57;;;6.57;;
20456;SDS011;10387;51.102;6.848;2022-08-16T02:44:29;6.93;;;6.23;;
20456;SDS011;10387;51.102;6.848;2022-08-16T02:46:55;6.63;;;6.07;;
20456;SDS011;10387;51.102;6.848;2022-08-16T02:49:23;7.13;;;6.30;;
20456;SDS011;10387;51.102;6.848;2022-08-16T02:51:50;7.10;;;6.50;;
20456;SDS011;10387;51.102;6.848;2022-08-16T02:54:16;7.30;;;6.10;;
20456;SDS011;10387;51.102;6.848;2022-08-16T02:56:45;7.07;;;6.17;;
20456;SDS011;10387;51.102;6.848;2022-08-16T02:59:11;6.90;;;6.30;;
20456;SDS011;10387;51.102;6.848;2022-08-16T03:01:38;6.67;;;6.07;;
20456;SDS011;10387;51.102;6.848;2022-08-16T03:04:10;6.70;;;6.20;;
20456;SDS011;10387;51.102;6.848;2022-08-16T03:06:36;9.60;;;6.13;;
20456;SDS011;10387;51.102;6.848;2022-08-16T03:09:09;6.97;;;6.37;;
20456;SDS011;10387;51.102;6.848;2022-08-16T03:11:39;6.70;;;6.00;;
20456;SDS011;10387;51.102;6.848;2022-08-16T03:14:05;7.73;;;6.97;;
20456;SDS011;10387;51.102;6.848;2022-08-16T03:16:31;8.47;;;6.60;;
20456;SDS011;10387;51.102;6.848;2022-08-16T03:18:57;7.57;;;6.77;;
20456;SDS011;10387;51.102;6.848;2022-08-16T03:21:24;7.10;;;6.50;;
20456;SDS011;10387;51.102;6.848;2022-08-16T03:23:52;8.73;;;6.87;;
20456;SDS011;10387;51.102;6.848;2022-08-16T03:26:18;7.20;;;6.60;;
20456;SDS011;10387;51.102;6.848;2022-08-16T03:28:45;8.07;;;6.93;;
20456;SDS011;10387;51.102;6.848;2022-08-16T03:31:11;8.63;;;6.40;;
20456;SDS011;10387;51.102;6.848;2022-08-16T03:33:37;7.27;;;6.60;;
20456;SDS011;10387;51.102;6.848;2022-08-16T03:36:04;7.23;;;6.63;;
20456;SDS011;10387;51.102;6.848;2022-08-16T03:38:35;6.43;;;5.83;;
20456;SDS011;10387;51.102;6.848;2022-08-16T03:41:05;7.77;;;6.83;;
20456;SDS011;10387;51.102;6.848;2022-08-16T03:43:33;7.50;;;6.60;;
20456;SDS011;10387;51.102;6.848;2022-08-16T03:46:00;7.13;;;6.43;;
20456;SDS011;10387;51.102;6.848;2022-08-16T03:48:31;6.93;;;6.33;;
20456;SDS011;10387;51.102;6.848;2022-08-16T03:51:01;6.30;;;5.67;;
20456;SDS011;10387;51.102;6.848;2022-08-16T03:53:31;7.87;;;6.20;;
20456;SDS011;10387;51.102;6.848;2022-08-16T03:55:58;7.07;;;6.47;;
20456;SDS011;10387;51.102;6.848;2022-08-16T03:58:24;7.93;;;6.50;;
20456;SDS011;10387;51.102;6.848;2022-08-16T04:00:50;7.90;;;7.20;;
20456;SDS011;10387;51.102;6.848;2022-08-16T04:03:19;6.80;;;6.20;;
20456;SDS011;10387;51.102;6.848;2022-08-16T04:05:46;7.03;;;6.33;;
20456;SDS011;10387;51.102;6.848;2022-08-16T04:08:17;7.40;;;6.70;;
20456;SDS011;10387;51.102;6.848;2022-08-16T04:10:46;7.93;;;7.13;;
20456;SDS011;10387;51.102;6.848;2022-08-16T04:13:12;8.40;;;7.33;;
20456;SDS011;10387;51.102;6.848;2022-08-16T04:15:39;8.90;;;6.70;;
20456;SDS011;10387;51.102;6.848;2022-08-16T04:18:19;7.40;;;6.70;;
20456;SDS011;10387;51.102;6.848;2022-08-16T04:20:45;8.53;;;7.10;;
20456;SDS011;10387;51.102;6.848;2022-08-16T04:23:12;7.60;;;6.33;;
20456;SDS011;10387;51.102;6.848;2022-08-16T04:25:40;7.90;;;7.07;;
20456;SDS011;10387;51.102;6.848;2022-08-16T04:28:08;7.77;;;7.03;;
20456;SDS011;10387;51.102;6.848;2022-08-16T04:30:34;8.10;;;6.60;;
20456;SDS011;10387;51.102;6.848;2022-08-16T04:33:02;7.50;;;6.67;;
20456;SDS011;10387;51.102;6.848;2022-08-16T04:35:31;6.87;;;6.27;;
20456;SDS011;10387;51.102;6.848;2022-08-16T04:37:57;7.03;;;6.20;;
20456;SDS011;10387;51.102;6.848;2022-08-16T04:40:29;8.00;;;6.30;;
20456;SDS011;10387;51.102;6.848;2022-08-16T04:42:56;6.37;;;5.77;;
20456;SDS011;10387;51.102;6.848;2022-08-16T04:45:26;6.73;;;6.03;;
20456;SDS011;10387;51.102;6.848;2022-08-16T04:47:54;6.87;;;6.00;;
20456;SDS011;10387;51.102;6.848;2022-08-16T04:50:21;6.60;;;5.90;;
20456;SDS011;10387;51.102;6.848;2022-08-16T04:53:01;7.20;;;6.50;;
20456;SDS011;10387;51.102;6.848;2022-08-16T04:55:30;7.10;;;5.83;;
20456;SDS011;10387;51.102;6.848;2022-08-16T04:57:57;6.67;;;5.97;;
20456;SDS011;10387;51.102;6.848;2022-08-16T05:00:26;8.27;;;6.00;;
20456;SDS011;10387;51.102;6.848;2022-08-16T05:03:00;7.63;;;6.10;;
20456;SDS011;10387;51.102;6.848;2022-08-16T05:05:27;7.63;;;6.77;;
20456;SDS011;10387;51.102;6.848;2022-08-16T05:07:54;7.20;;;6.50;;
20456;SDS011;10387;51.102;6.848;2022-08-16T05:10:20;6.37;;;5.73;;
20456;SDS011;10387;51.102;6.848;2022-08-16T05:12:47;6.53;;;5.77;;
20456;SDS011;10387;51.102;6.848;2022-08-16T05:15:13;7.43;;;6.37;;
20456;SDS011;10387;51.102;6.848;2022-08-16T05:17:40;9.47;;;5.97;;
20456;SDS011;10387;51.102;6.848;2022-08-16T05:20:11;6.43;;;5.83;;
20456;SDS011;10387;51.102;6.848;2022-08-16T05:22:39;7.00;;;6.40;;
20456;SDS011;10387;51.102;6.848;2022-08-16T05:25:08;7.37;;;6.67;;
20456;SDS011;10387;51.102;6.848;2022-08-16T05:27:41;6.77;;;6.07;;
20456;SDS011;10387;51.102;6.848;2022-08-16T05:30:08;7.23;;;6.53;;
20456;SDS011;10387;51.102;6.848;2022-08-16T05:32:39;7.47;;;6.77;;
20456;SDS011;10387;51.102;6.848;2022-08-16T05:35:07;6.93;;;6.13;;
20456;SDS011;10387;51.102;6.848;2022-08-16T05:37:34;6.60;;;6.00;;
20456;SDS011;10387;51.102;6.848;2022-08-16T05:40:01;7.67;;;6.90;;
20456;SDS011;10387;51.102;6.848;2022-08-16T05:42:28;9.10;;;6.90;;
20456;SDS011;10387;51.102;6.848;2022-08-16T05:44:54;7.13;;;6.43;;
20456;SDS011;10387;51.102;6.848;2022-08-16T05:47:20;8.80;;;6.80;;
20456;SDS011;10387;51.102;6.848;2022-08-16T05:49:46;7.33;;;6.53;;
20456;SDS011;10387;51.102;6.848;2022-08-16T05:52:12;9.50;;;6.90;;
20456;SDS011;10387;51.102;6.848;2022-08-16T05:54:41;6.60;;;6.00;;
20456;SDS011;10387;51.102;6.848;2022-08-16T05:57:08;8.67;;;7.13;;
20456;SDS011;10387;51.102;6.848;2022-08-16T05:59:35;9.77;;;7.53;;
20456;SDS011;10387;51.102;6.848;2022-08-16T06:02:02;8.20;;;7.33;;
20456;SDS011;10387;51.102;6.848;2022-08-16T06:04:31;8.10;;;7.40;;
20456;SDS011;10387;51.102;6.848;2022-08-16T06:06:57;7.70;;;7.10;;
20456;SDS011;10387;51.102;6.848;2022-08-16T06:09:28;9.63;;;7.20;;
20456;SDS011;10387;51.102;6.848;2022-08-16T06:11:54;7.97;;;7.17;;
20456;SDS011;10387;51.102;6.848;2022-08-16T06:14:20;10.07;;;7.60;;
20456;SDS011;10387;51.102;6.848;2022-08-16T06:16:47;9.03;;;7.63;;
20456;SDS011;10387;51.102;6.848;2022-08-16T06:19:13;9.63;;;7.03;;
20456;SDS011;10387;51.102;6.848;2022-08-16T06:21:53;7.20;;;6.50;;
20456;SDS011;10387;51.102;6.848;2022-08-16T06:24:20;7.97;;;7.17;;
20456;SDS011;10387;51.102;6.848;2022-08-16T06:26:47;7.33;;;6.63;;
20456;SDS011;10387;51.102;6.848;2022-08-16T06:29:13;7.50;;;6.80;;
20456;SDS011;10387;51.102;6.848;2022-08-16T06:31:40;7.70;;;7.00;;
20456;SDS011;10387;51.102;6.848;2022-08-16T06:34:06;8.40;;;7.43;;
20456;SDS011;10387;51.102;6.848;2022-08-16T06:36:34;7.67;;;6.97;;
20456;SDS011;10387;51.102;6.848;2022-08-16T06:39:13;7.33;;;6.67;;
20456;SDS011;10387;51.102;6.848;2022-08-16T06:41:54;7.60;;;7.00;;
20456;SDS011;10387;51.102;6.848;2022-08-16T06:44:38;8.63;;;7.13;;
20456;SDS011;10387;51.102;6.848;2022-08-16T06:47:12;9.03;;;7.40;;
20456;SDS011;10387;51.102;6.848;2022-08-16T06:49:39;7.53;;;6.93;;
20456;SDS011;10387;51.102;6.848;2022-08-16T06:52:05;7.67;;;6.83;;
20456;SDS011;10387;51.102;6.848;2022-08-16T06:54:36;7.77;;;6.73;;
20456;SDS011;10387;51.102;6.848;2022-08-16T06:57:02;7.20;;;6.50;;
20456;SDS011;10387;51.102;6.848;2022-08-16T06:59:30;8.27;;;6.90;;
20456;SDS011;10387;51.102;6.848;2022-08-16T07:01:57;7.07;;;6.40;;
20456;SDS011;10387;51.102;6.848;2022-08-16T07:04:25;8.33;;;7.43;;
20456;SDS011;10387;51.102;6.848;2022-08-16T07:06:52;7.67;;;6.87;;
20456;SDS011;10387;51.102;6.848;2022-08-16T07:09:20;7.53;;;6.27;;
20456;SDS011;10387;51.102;6.848;2022-08-16T07:11:46;7.37;;;6.67;;
20456;SDS011;10387;51.102;6.848;2022-08-16T07:14:15;7.53;;;6.80;;
20456;SDS011;10387;51.102;6.848;2022-08-16T07:16:48;8.73;;;7.83;;
20456;SDS011;10387;51.102;6.848;2022-08-16T07:19:14;7.43;;;6.83;;
20456;SDS011;10387;51.102;6.848;2022-08-16T07:21:42;6.57;;;5.87;;
20456;SDS011;10387;51.102;6.848;2022-08-16T07:24:09;7.50;;;6.80;;
20456;SDS011;10387;51.102;6.848;2022-08-16T07:26:39;6.67;;;6.07;;
20456;SDS011;10387;51.102;6.848;2022-08-16T07:29:06;6.90;;;6.20;;
20456;SDS011;10387;51.102;6.848;2022-08-16T07:31:32;7.60;;;6.50;;
20456;SDS011;10387;51.102;6.848;2022-08-16T07:33:59;6.93;;;6.10;;
20456;SDS011;10387;51.102;6.848;2022-08-16T07:36:29;7.57;;;5.80;;
20456;SDS011;10387;51.102;6.848;2022-08-16T07:38:55;6.72;;;6.00;;
20456;SDS011;10387;51.102;6.848;2022-08-16T07:41:22;8.00;;;7.30;;
20456;SDS011;10387;51.102;6.848;2022-08-16T07:43:55;7.80;;;6.30;;
20456;SDS011;10387;51.102;6.848;2022-08-16T07:46:24;7.27;;;6.57;;
20456;SDS011;10387;51.102;6.848;2022-08-16T07:48:50;7.53;;;6.40;;
20456;SDS011;10387;51.102;6.848;2022-08-16T07:51:16;8.07;;;6.90;;
20456;SDS011;10387;51.102;6.848;2022-08-16T07:53:43;6.75;;;6.20;;
20456;SDS011;10387;51.102;6.848;2022-08-16T07:56:13;8.32;;;6.90;;
20456;SDS011;10387;51.102;6.848;2022-08-16T07:58:41;7.53;;;6.73;;
20456;SDS011;10387;51.102;6.848;2022-08-16T08:01:13;8.50;;;7.10;;
20456;SDS011;10387;51.102;6.848;2022-08-16T08:03:45;7.87;;;7.07;;
20456;SDS011;10387;51.102;6.848;2022-08-16T08:06:11;10.07;;;9.07;;
20456;SDS011;10387;51.102;6.848;2022-08-16T08:08:38;8.37;;;7.27;;
20456;SDS011;10387;51.102;6.848;2022-08-16T08:11:06;7.78;;;6.38;;
20456;SDS011;10387;51.102;6.848;2022-08-16T08:13:32;8.20;;;7.45;;
20456;SDS011;10387;51.102;6.848;2022-08-16T08:15:59;8.85;;;7.57;;
20456;SDS011;10387;51.102;6.848;2022-08-16T08:18:25;7.75;;;6.97;;
20456;SDS011;10387;51.102;6.848;2022-08-16T08:20:51;9.02;;;7.55;;
20456;SDS011;10387;51.102;6.848;2022-08-16T08:23:17;9.23;;;7.37;;
20456;SDS011;10387;51.102;6.848;2022-08-16T08:25:47;9.00;;;7.68;;
20456;SDS011;10387;51.102;6.848;2022-08-16T08:28:14;8.50;;;7.70;;
20456;SDS011;10387;51.102;6.848;2022-08-16T08:30:41;9.45;;;8.10;;
20456;SDS011;10387;51.102;6.848;2022-08-16T08:33:07;8.82;;;7.43;;
20456;SDS011;10387;51.102;6.848;2022-08-16T08:35:38;8.88;;;7.45;;
20456;SDS011;10387;51.102;6.848;2022-08-16T08:38:07;7.93;;;7.03;;
20456;SDS011;10387;51.102;6.848;2022-08-16T08:40:37;7.70;;;6.97;;
20456;SDS011;10387;51.102;6.848;2022-08-16T08:43:04;9.13;;;8.00;;
20456;SDS011;10387;51.102;6.848;2022-08-16T08:45:34;7.90;;;7.07;;
20456;SDS011;10387;51.102;6.848;2022-08-16T08:48:00;8.25;;;7.55;;
20456;SDS011;10387;51.102;6.848;2022-08-16T08:50:31;8.10;;;7.10;;
20456;SDS011;10387;51.102;6.848;2022-08-16T08:52:57;8.32;;;7.40;;
20456;SDS011;10387;51.102;6.848;2022-08-16T08:55:26;8.68;;;7.63;;
20456;SDS011;10387;51.102;6.848;2022-08-16T08:57:52;8.38;;;7.55;;
20456;SDS011;10387;51.102;6.848;2022-08-16T09:00:41;8.77;;;7.90;;
20456;SDS011;10387;51.102;6.848;2022-08-16T09:03:07;7.70;;;6.88;;
20456;SDS011;10387;51.102;6.848;2022-08-16T09:05:38;8.45;;;7.50;;
20456;SDS011;10387;51.102;6.848;2022-08-16T09:08:06;10.45;;;8.77;;
20456;SDS011;10387;51.102;6.848;2022-08-16T09:10:42;8.95;;;8.05;;
20456;SDS011;10387;51.102;6.848;2022-08-16T09:13:09;8.02;;;7.32;;
20456;SDS011;10387;51.102;6.848;2022-08-16T09:15:41;10.10;;;7.82;;
20456;SDS011;10387;51.102;6.848;2022-08-16T09:18:08;8.40;;;7.70;;
20456;SDS011;10387;51.102;6.848;2022-08-16T09:20:35;9.13;;;7.35;;
20456;SDS011;10387;51.102;6.848;2022-08-16T09:23:01;8.68;;;7.00;;
20456;SDS011;10387;51.102;6.848;2022-08-16T09:25:38;8.82;;;7.93;;
20456;SDS011;10387;51.102;6.848;2022-08-16T09:28:08;8.82;;;7.35;;
20456;SDS011;10387;51.102;6.848;2022-08-16T09:30:34;8.68;;;7.80;;
20456;SDS011;10387;51.102;6.848;2022-08-16T09:33:01;8.38;;;7.57;;
20456;SDS011;10387;51.102;6.848;2022-08-16T09:35:27;8.73;;;7.82;;
20456;SDS011;10387;51.102;6.848;2022-08-16T09:37:53;9.73;;;8.60;;
20456;SDS011;10387;51.102;6.848;2022-08-16T09:40:21;8.70;;;7.90;;
20456;SDS011;10387;51.102;6.848;2022-08-16T09:42:47;9.00;;;8.07;;
20456;SDS011;10387;51.102;6.848;2022-08-16T09:45:14;8.73;;;7.90;;
20456;SDS011;10387;51.102;6.848;2022-08-16T09:47:40;9.95;;;8.20;;
20456;SDS011;10387;51.102;6.848;2022-08-16T09:50:07;9.40;;;8.43;;
20456;SDS011;10387;51.102;6.848;2022-08-16T09:52:33;9.80;;;7.78;;
20456;SDS011;10387;51.102;6.848;2022-08-16T09:55:05;11.20;;;7.97;;
20456;SDS011;10387;51.102;6.848;2022-08-16T09:57:31;7.68;;;6.93;;
20456;SDS011;10387;51.102;6.848;2022-08-16T09:59:58;8.88;;;8.07;;
20456;SDS011;10387;51.102;6.848;2022-08-16T10:02:37;9.38;;;7.70;;
20456;SDS011;10387;51.102;6.848;2022-08-16T10:05:05;8.90;;;8.00;;
20456;SDS011;10387;51.102;6.848;2022-08-16T10:07:32;9.00;;;8.10;;
20456;SDS011;10387;51.102;6.848;2022-08-16T10:09:58;8.35;;;7.47;;
20456;SDS011;10387;51.102;6.848;2022-08-16T10:12:27;8.05;;;7.25;;
20456;SDS011;10387;51.102;6.848;2022-08-16T10:15:21;8.27;;;7.32;;
20456;SDS011;10387;51.102;6.848;2022-08-16T10:17:48;9.27;;;8.00;;
20456;SDS011;10387;51.102;6.848;2022-08-16T10:20:15;8.85;;;7.95;;
20456;SDS011;10387;51.102;6.848;2022-08-16T10:22:42;9.23;;;8.30;;
20456;SDS011;10387;51.102;6.848;2022-08-16T10:25:08;8.73;;;7.85;;
20456;SDS011;10387;51.102;6.848;2022-08-16T10:27:34;8.38;;;7.55;;
20456;SDS011;10387;51.102;6.848;2022-08-16T10:30:02;9.55;;;8.65;;
20456;SDS011;10387;51.102;6.848;2022-08-16T10:32:29;9.27;;;8.38;;
20456;SDS011;10387;51.102;6.848;2022-08-16T10:34:55;9.00;;;8.10;;
20456;SDS011;10387;51.102;6.848;2022-08-16T10:37:22;10.45;;;9.45;;
20456;SDS011;10387;51.102;6.848;2022-08-16T10:39:48;10.25;;;8.18;;
20456;SDS011;10387;51.102;6.848;2022-08-16T10:42:14;9.95;;;8.32;;
20456;SDS011;10387;51.102;6.848;2022-08-16T10:44:42;10.43;;;9.52;;
20456;SDS011;10387;51.102;6.848;2022-08-16T10:47:08;10.52;;;8.98;;
20456;SDS011;10387;51.102;6.848;2022-08-16T10:49:34;9.20;;;8.32;;
20456;SDS011;10387;51.102;6.848;2022-08-16T10:52:01;9.20;;;8.20;;
20456;SDS011;10387;51.102;6.848;2022-08-16T10:54:27;9.77;;;8.60;;
20456;SDS011;10387;51.102;6.848;2022-08-16T10:56:53;9.48;;;8.57;;
20456;SDS011;10387;51.102;6.848;2022-08-16T10:59:20;9.63;;;8.65;;
20456;SDS011;10387;51.102;6.848;2022-08-16T11:01:46;10.20;;;8.40;;
20456;SDS011;10387;51.102;6.848;2022-08-16T11:04:13;9.10;;;7.72;;
20456;SDS011;10387;51.102;6.848;2022-08-16T11:06:39;9.95;;;7.70;;
20456;SDS011;10387;51.102;6.848;2022-08-16T11:09:05;10.18;;;7.43;;
20456;SDS011;10387;51.102;6.848;2022-08-16T11:11:31;7.70;;;7.00;;
20456;SDS011;10387;51.102;6.848;2022-08-16T11:13:57;7.53;;;6.78;;
20456;SDS011;10387;51.102;6.848;2022-08-16T11:16:24;7.72;;;6.93;;
20456;SDS011;10387;51.102;6.848;2022-08-16T11:18:52;6.97;;;6.38;;
20456;SDS011;10387;51.102;6.848;2022-08-16T11:21:18;7.32;;;6.63;;
20456;SDS011;10387;51.102;6.848;2022-08-16T11:23:45;7.25;;;6.50;;
20456;SDS011;10387;51.102;6.848;2022-08-16T11:26:11;7.82;;;7.20;;
20456;SDS011;10387;51.102;6.848;2022-08-16T11:28:37;6.55;;;5.93;;
20456;SDS011;10387;51.102;6.848;2022-08-16T11:31:04;6.13;;;5.65;;
20456;SDS011;10387;51.102;6.848;2022-08-16T11:33:30;6.05;;;5.53;;
20456;SDS011;10387;51.102;6.848;2022-08-16T11:35:56;6.75;;;6.05;;
20456;SDS011;10387;51.102;6.848;2022-08-16T11:38:23;6.60;;;6.00;;
20456;SDS011;10387;51.102;6.848;2022-08-16T11:40:51;6.88;;;6.28;;
20456;SDS011;10387;51.102;6.848;2022-08-16T11:43:25;6.97;;;6.28;;
20456;SDS011;10387;51.102;6.848;2022-08-16T11:45:52;8.07;;;5.75;;
20456;SDS011;10387;51.102;6.848;2022-08-16T11:48:19;6.50;;;5.90;;
20456;SDS011;10387;51.102;6.848;2022-08-16T11:50:45;6.60;;;6.00;;
20456;SDS011;10387;51.102;6.848;2022-08-16T11:53:11;6.38;;;5.85;;
20456;SDS011;10387;51.102;6.848;2022-08-16T11:55:39;6.30;;;5.65;;
20456;SDS011;10387;51.102;6.848;2022-08-16T11:58:06;6.20;;;5.60;;
20456;SDS011;10387;51.102;6.848;2022-08-16T12:00:32;7.78;;;5.97;;
20456;SDS011;10387;51.102;6.848;2022-08-16T12:02:58;6.93;;;6.32;;
20456;SDS011;10387;51.102;6.848;2022-08-16T12:05:25;7.22;;;6.45;;
20456;SDS011;10387;51.102;6.848;2022-08-16T12:07:51;6.80;;;6.15;;
20456;SDS011;10387;51.102;6.848;2022-08-16T12:10:19;8.57;;;5.97;;
20456;SDS011;10387;51.102;6.848;2022-08-16T12:12:46;6.90;;;6.15;;
20456;SDS011;10387;51.102;6.848;2022-08-16T12:15:13;6.22;;;5.63;;
20456;SDS011;10387;51.102;6.848;2022-08-16T12:17:40;6.22;;;5.70;;
20456;SDS011;10387;51.102;6.848;2022-08-16T12:20:08;6.22;;;5.70;;
20456;SDS011;10387;51.102;6.848;2022-08-16T12:22:35;5.90;;;5.40;;
20456;SDS011;10387;51.102;6.848;2022-08-16T12:25:06;6.28;;;5.68;;
20456;SDS011;10387;51.102;6.848;2022-08-16T12:27:33;5.82;;;5.32;;
20456;SDS011;10387;51.102;6.848;2022-08-16T12:30:00;6.50;;;6.00;;
20456;SDS011;10387;51.102;6.848;2022-08-16T12:32:26;8.57;;;6.28;;
20456;SDS011;10387;51.102;6.848;2022-08-16T12:34:52;5.88;;;5.40;;
20456;SDS011;10387;51.102;6.848;2022-08-16T12:37:19;7.10;;;6.25;;
20456;SDS011;10387;51.102;6.848;2022-08-16T12:39:45;8.25;;;5.68;;
20456;SDS011;10387;51.102;6.848;2022-08-16T12:42:11;5.97;;;5.47;;
20456;SDS011;10387;51.102;6.848;2022-08-16T12:44:38;6.18;;;5.60;;
20456;SDS011;10387;51.102;6.848;2022-08-16T12:47:07;7.38;;;6.22;;
20456;SDS011;10387;51.102;6.848;2022-08-16T12:49:52;6.25;;;5.75;;
20456;SDS011;10387;51.102;6.848;2022-08-16T12:52:19;7.72;;;5.72;;
20456;SDS011;10387;51.102;6.848;2022-08-16T12:54:45;6.43;;;5.85;;
20456;SDS011;10387;51.102;6.848;2022-08-16T12:57:11;6.22;;;5.70;;
20456;SDS011;10387;51.102;6.848;2022-08-16T12:59:37;6.47;;;5.78;;
20456;SDS011;10387;51.102;6.848;2022-08-16T13:02:03;5.78;;;5.32;;
20456;SDS011;10387;51.102;6.848;2022-08-16T13:04:30;6.45;;;5.30;;
20456;SDS011;10387;51.102;6.848;2022-08-16T13:06:57;6.22;;;5.63;;
20456;SDS011;10387;51.102;6.848;2022-08-16T13:09:24;8.75;;;5.68;;
20456;SDS011;10387;51.102;6.848;2022-08-16T13:11:58;6.18;;;5.65;;
20456;SDS011;10387;51.102;6.848;2022-08-16T13:14:28;5.68;;;5.22;;
20456;SDS011;10387;51.102;6.848;2022-08-16T13:16:54;7.97;;;5.50;;
20456;SDS011;10387;51.102;6.848;2022-08-16T13:19:20;6.25;;;5.65;;
20456;SDS011;10387;51.102;6.848;2022-08-16T13:21:46;6.55;;;5.90;;
20456;SDS011;10387;51.102;6.848;2022-08-16T13:24:12;6.90;;;6.15;;
20456;SDS011;10387;51.102;6.848;2022-08-16T13:26:38;7.30;;;5.95;;
20456;SDS011;10387;51.102;6.848;2022-08-16T13:29:04;7.10;;;6.03;;
20456;SDS011;10387;51.102;6.848;2022-08-16T13:31:30;5.93;;;5.43;;
20456;SDS011;10387;51.102;6.848;2022-08-16T13:33:57;6.15;;;5.50;;
20456;SDS011;10387;51.102;6.848;2022-08-16T13:36:23;6.10;;;5.57;;
20456;SDS011;10387;51.102;6.848;2022-08-16T13:38:49;6.13;;;5.63;;
20456;SDS011;10387;51.102;6.848;2022-08-16T13:41:15;6.50;;;5.82;;
20456;SDS011;10387;51.102;6.848;2022-08-16T13:43:43;6.60;;;6.10;;
20456;SDS011;10387;51.102;6.848;2022-08-16T13:46:09;6.25;;;5.68;;
20456;SDS011;10387;51.102;6.848;2022-08-16T13:48:36;6.32;;;5.82;;
20456;SDS011;10387;51.102;6.848;2022-08-16T13:51:02;6.60;;;5.95;;
20456;SDS011;10387;51.102;6.848;2022-08-16T13:53:29;6.28;;;5.88;;
20456;SDS011;10387;51.102;6.848;2022-08-16T13:55:55;6.80;;;6.18;;
20456;SDS011;10387;51.102;6.848;2022-08-16T13:58:22;7.30;;;5.60;;
20456;SDS011;10387;51.102;6.848;2022-08-16T14:00:48;6.70;;;5.97;;
20456;SDS011;10387;51.102;6.848;2022-08-16T14:03:16;6.80;;;5.80;;
20456;SDS011;10387;51.102;6.848;2022-08-16T14:05:42;6.68;;;6.07;;
20456;SDS011;10387;51.102;6.848;2022-08-16T14:08:08;6.78;;;6.00;;
20456;SDS011;10387;51.102;6.848;2022-08-16T14:10:34;8.75;;;6.43;;
20456;SDS011;10387;51.102;6.848;2022-08-16T14:13:01;6.50;;;5.88;;
20456;SDS011;10387;51.102;6.848;2022-08-16T14:15:27;6.43;;;5.80;;
20456;SDS011;10387;51.102;6.848;2022-08-16T14:17:54;6.70;;;5.88;;
20456;SDS011;10387;51.102;6.848;2022-08-16T14:20:20;6.25;;;5.70;;
20456;SDS011;10387;51.102;6.848;2022-08-16T14:22:46;7.13;;;5.80;;
20456;SDS011;10387;51.102;6.848;2022-08-16T14:25:15;6.10;;;5.50;;
20456;SDS011;10387;51.102;6.848;2022-08-16T14:27:43;6.10;;;5.50;;
20456;SDS011;10387;51.102;6.848;2022-08-16T14:30:10;6.00;;;5.40;;
20456;SDS011;10387;51.102;6.848;2022-08-16T14:32:37;6.38;;;5.78;;
20456;SDS011;10387;51.102;6.848;2022-08-16T14:35:07;6.05;;;5.45;;
20456;SDS011;10387;51.102;6.848;2022-08-16T14:37:35;6.05;;;5.55;;
20456;SDS011;10387;51.102;6.848;2022-08-16T14:40:06;6.13;;;5.57;;
20456;SDS011;10387;51.102;6.848;2022-08-16T14:42:33;6.70;;;6.10;;
20456;SDS011;10387;51.102;6.848;2022-08-16T14:44:59;6.50;;;5.78;;
20456;SDS011;10387;51.102;6.848;2022-08-16T14:47:25;6.10;;;5.60;;
20456;SDS011;10387;51.102;6.848;2022-08-16T14:49:51;6.00;;;5.40;;
20456;SDS011;10387;51.102;6.848;2022-08-16T14:52:19;5.95;;;5.38;;
20456;SDS011;10387;51.102;6.848;2022-08-16T14:54:46;6.30;;;5.78;;